Wilmer, AL (36587)

8:23 AM CST on January 31, 2015 (GMT -0600)
APRSWXNET Wilmer AL US | Change Station
CLOSE
Current Station
Personal Weather Station
Location: Wilmer, AL
Elevation: 183 ft
Nearby Weather Stations

Elev 183 ft 30.75 °N, 88.40 °W | Updated 23 minutes ago

Clear
Clear
38 °F
Feels Like 38 °F
N
0
Wind Variable Wind from NE
Gusts 2.0 mph

Today
High -- | Low -- °F
--% Chance of Precip.
Yesterday
High -- | Low -- °F
Precip. -- in
6:45 AM 5:28 PM
Waxing Gibbous, 90% visible
Pressure 30.34 in
Visibility 10.0 miles
Clouds Scattered Clouds 25000 ft
Windchill 38 °F
Dew Point 29 °F
Humidity 70%
Rainfall 0.00 in
Snow Depth Not available.
UV 1 out of 12
Pollen 6.30 out of 12
Air Quality Not available.
Flu Activity Not available.
METAR KMOB 311356Z 07010KT 10SM SCT250 04/M03 A3034 RMK AO2 SLP272 T00391028

More Conditions Fewer Conditions

Pressure 30.34 in
Visibility 10.0 miles
Clouds Scattered Clouds 25000 ft
Windchill 38 °F
Dew Point 29 °F
Humidity 70%
Rainfall 0.00 in
Snow Depth Not available.
UV 1 out of 12
Pollen 6.30 out of 12
Air Quality Not available.
Flu Activity Not available.
METAR KMOB 311356Z 07010KT 10SM SCT250 04/M03 A3034 RMK AO2 SLP272 T00391028

More Conditions Fewer Conditions

10-Day Weather Forecast

Almanac

Astronomy

Jan. 31, 2015 Rise Set
Actual Time
Civil Twilight
Nautical Twilight
Astronomical Twilight
Moon
Length of Visible Light
Length of Day
Tomorrow will be .
, % of the Moon is Illuminated

Today's Extremes

State Highs State Lows

Community

WunderPhotos

Upload Photos

1,792,058 photos uploaded!

WunderBlogs® & News

Nearby

Air Quality

  Air Quality AQ Index Pollutant
Not available.

Snow Depth

Station Depth Elevation

Earthquake Activity

City Distance Mag. Time & Date
Minimum magnitude displayed is 2.5.

Coastal Water Temperatures

Place Temperature

Nearby Weather Stations